createdAt,value
2017-09-25T00:00:16.344Z,0
2017-09-25T00:01:25.009Z,0
2017-09-25T00:02:34.299Z,0
2017-09-25T00:03:43.611Z,0
2017-09-25T00:04:52.892Z,0
2017-09-25T00:06:02.641Z,0
2017-09-25T00:07:11.915Z,0
2017-09-25T00:08:20.894Z,0
2017-09-25T00:09:30.167Z,0
2017-09-25T00:10:39.145Z,0
2017-09-25T00:11:48.206Z,0
2017-09-25T00:12:57.161Z,0
2017-09-25T00:14:06.151Z,0
2017-09-25T00:15:15.124Z,0
2017-09-25T00:16:24.706Z,0
2017-09-25T00:17:33.351Z,0
2017-09-25T00:18:42.658Z,0
2017-09-25T00:19:52.250Z,0
2017-09-25T00:21:01.225Z,0
2017-09-25T00:22:10.506Z,0
2017-09-25T00:23:19.485Z,0
2017-09-25T00:24:28.469Z,0
2017-09-25T00:25:37.775Z,0
2017-09-25T00:26:47.688Z,0
2017-09-25T00:27:56.358Z,0
2017-09-25T00:29:05.799Z,0
2017-09-25T00:30:14.443Z,0
2017-09-25T00:31:23.722Z,0
2017-09-25T00:32:32.697Z,0
2017-09-25T00:33:42.047Z,0
2017-09-25T00:34:51.539Z,0
2017-09-25T00:36:00.856Z,0
2017-09-25T00:37:09.819Z,0
2017-09-25T00:38:19.094Z,0
2017-09-25T00:39:28.362Z,0
2017-09-25T00:40:37.637Z,0
2017-09-25T00:41:46.652Z,0
2017-09-25T00:42:55.641Z,0
2017-09-25T00:44:04.623Z,0
2017-09-25T00:45:13.622Z,0
2017-09-25T00:46:23.002Z,0
2017-09-25T00:47:31.659Z,0
2017-09-25T00:48:40.943Z,0
2017-09-25T00:49:49.944Z,0
2017-09-25T00:50:58.916Z,0
2017-09-25T00:52:07.944Z,0
2017-09-25T00:53:17.214Z,0
2017-09-25T00:54:26.512Z,0
2017-09-25T00:55:35.183Z,0
2017-09-25T00:56:44.147Z,0
2017-09-25T00:57:53.573Z,0
2017-09-25T00:59:02.249Z,0
2017-09-25T01:00:10.910Z,0
2017-09-25T01:01:19.890Z,0
2017-09-25T01:02:29.198Z,0
2017-09-25T01:03:39.102Z,0
2017-09-25T01:04:48.061Z,0
2017-09-25T01:05:57.362Z,0
2017-09-25T01:07:06.659Z,0
2017-09-25T01:08:16.253Z,0
2017-09-25T01:09:25.639Z,0
2017-09-25T01:10:34.593Z,0
2017-09-25T01:11:44.518Z,0
2017-09-25T01:12:53.817Z,0
2017-09-25T01:14:02.466Z,0
2017-09-25T01:15:11.306Z,0
2017-09-25T01:16:20.275Z,0
2017-09-25T01:17:29.875Z,0
2017-09-25T01:18:39.482Z,0
2017-09-25T01:19:48.442Z,0
2017-09-25T01:20:57.722Z,0
2017-09-25T01:22:06.399Z,0
2017-09-25T01:23:15.367Z,0
2017-09-25T01:24:24.652Z,0
2017-09-25T01:25:33.933Z,0
2017-09-25T01:26:43.221Z,0
2017-09-25T01:27:52.194Z,0
2017-09-25T01:29:01.487Z,0
2017-09-25T01:30:11.075Z,0
2017-09-25T01:31:20.029Z,0
2017-09-25T01:32:29.490Z,0
2017-09-25T01:33:38.453Z,0
2017-09-25T01:34:47.721Z,0
2017-09-25T01:35:56.364Z,0
2017-09-25T01:37:05.017Z,0
2017-09-25T01:38:14.713Z,0
2017-09-25T01:39:23.371Z,0
2017-09-25T01:40:32.020Z,0
2017-09-25T01:41:41.356Z,0
2017-09-25T01:42:50.320Z,0
2017-09-25T01:43:59.919Z,0
2017-09-25T01:45:09.224Z,0
2017-09-25T01:46:17.876Z,0
2017-09-25T01:47:26.857Z,0
2017-09-25T01:48:35.833Z,0
2017-09-25T01:49:44.772Z,0
2017-09-25T01:50:54.075Z,0
2017-09-25T01:52:03.355Z,0
2017-09-25T01:53:12.341Z,0
2017-09-25T01:54:21.313Z,0
2017-09-25T01:55:30.069Z,0
2017-09-25T01:56:39.055Z,0
2017-09-25T01:57:48.324Z,0
2017-09-25T01:58:57.593Z,0
2017-09-25T02:00:06.548Z,0
2017-09-25T02:01:15.992Z,0
2017-09-25T02:02:24.952Z,0
2017-09-25T02:03:33.612Z,0
2017-09-25T02:04:42.581Z,0
2017-09-25T02:05:51.862Z,0
2017-09-25T02:07:00.610Z,0
2017-09-25T02:08:09.573Z,0
2017-09-25T02:09:18.542Z,0
2017-09-25T02:10:27.192Z,0
2017-09-25T02:11:35.841Z,0
2017-09-25T02:12:44.812Z,0
2017-09-25T02:13:53.468Z,0
2017-09-25T02:15:03.068Z,0
2017-09-25T02:16:12.043Z,0
2017-09-25T02:17:21.650Z,0
2017-09-25T02:18:30.607Z,0
2017-09-25T02:19:39.250Z,0
2017-09-25T02:20:48.212Z,0
2017-09-25T02:21:57.478Z,0
2017-09-25T02:23:06.762Z,0
2017-09-25T02:24:16.030Z,0
2017-09-25T02:25:24.673Z,0
2017-09-25T02:26:33.328Z,0
2017-09-25T02:27:42.293Z,0
2017-09-25T02:28:51.282Z,0
2017-09-25T02:30:00.399Z,0
2017-09-25T02:31:09.358Z,0
2017-09-25T02:32:18.330Z,0
2017-09-25T02:33:27.610Z,0
2017-09-25T02:34:36.895Z,0
2017-09-25T02:35:45.855Z,0
2017-09-25T02:36:54.822Z,0
2017-09-25T02:38:03.792Z,0
2017-09-25T02:39:12.777Z,0
2017-09-25T02:40:22.078Z,0
2017-09-25T02:41:31.363Z,0
2017-09-25T02:42:40.640Z,0
2017-09-25T02:43:49.287Z,0
2017-09-25T02:44:57.944Z,0
2017-09-25T02:46:06.912Z,0
2017-09-25T02:47:15.867Z,0
2017-09-25T02:48:25.448Z,0
2017-09-25T02:49:35.089Z,0
2017-09-25T02:50:44.354Z,0
2017-09-25T02:51:53.311Z,0
2017-09-25T02:53:02.585Z,0
2017-09-25T02:54:11.870Z,0
2017-09-25T02:55:20.828Z,0
2017-09-25T02:56:30.105Z,0
2017-09-25T02:57:39.089Z,0
2017-09-25T02:58:48.084Z,0
2017-09-25T02:59:57.110Z,0
2017-09-25T03:01:06.071Z,0
2017-09-25T03:02:15.346Z,0
2017-09-25T03:03:24.965Z,0
2017-09-25T03:04:33.834Z,0
2017-09-25T03:05:42.792Z,0
2017-09-25T03:06:52.429Z,0
2017-09-25T03:08:01.080Z,0
2017-09-25T03:09:10.678Z,0
2017-09-25T03:10:19.641Z,0
2017-09-25T03:11:28.591Z,0
2017-09-25T03:12:37.253Z,0
2017-09-25T03:13:45.896Z,0
2017-09-25T03:14:54.882Z,0
2017-09-25T03:16:03.850Z,0
2017-09-25T03:17:12.510Z,0
2017-09-25T03:18:22.139Z,0
2017-09-25T03:19:31.425Z,0
2017-09-25T03:20:40.716Z,0
2017-09-25T03:21:49.683Z,0
2017-09-25T03:22:58.338Z,0
2017-09-25T03:24:07.309Z,0
2017-09-25T03:25:15.965Z,0
2017-09-25T03:26:24.926Z,0
2017-09-25T03:27:34.517Z,0
2017-09-25T03:28:43.490Z,0
2017-09-25T03:29:52.759Z,0
2017-09-25T03:31:02.695Z,0
2017-09-25T03:32:11.346Z,0
2017-09-25T03:33:20.606Z,0
2017-09-25T03:34:29.568Z,0
2017-09-25T03:35:38.525Z,0
2017-09-25T03:36:47.519Z,0
2017-09-25T03:37:56.474Z,0
2017-09-25T03:39:06.073Z,0
2017-09-25T03:40:15.351Z,0
2017-09-25T03:41:24.000Z,0
2017-09-25T03:42:33.269Z,0
2017-09-25T03:43:42.234Z,0
2017-09-25T03:44:51.611Z,0
2017-09-25T03:46:01.511Z,0
2017-09-25T03:47:10.153Z,0
2017-09-25T03:48:19.125Z,0
2017-09-25T03:49:28.410Z,0
2017-09-25T03:50:37.993Z,0
2017-09-25T03:51:46.969Z,0
2017-09-25T03:52:56.239Z,0
2017-09-25T03:54:05.210Z,0
2017-09-25T03:55:14.191Z,0
2017-09-25T03:56:23.183Z,0
2017-09-25T03:57:32.155Z,0
2017-09-25T03:58:41.120Z,0
2017-09-25T03:59:49.772Z,0
2017-09-25T04:00:58.731Z,0
2017-09-25T04:02:08.636Z,0
2017-09-25T04:03:17.918Z,0
2017-09-25T04:04:27.189Z,0
2017-09-25T04:05:36.146Z,0
2017-09-25T04:06:45.760Z,0
2017-09-25T04:07:54.876Z,0
2017-09-25T04:09:04.169Z,0
2017-09-25T04:10:13.138Z,0
2017-09-25T04:11:21.796Z,0
2017-09-25T04:12:30.753Z,0
2017-09-25T04:13:39.876Z,0
2017-09-25T04:14:48.824Z,0
2017-09-25T04:15:57.473Z,0
2017-09-25T04:17:06.781Z,0
2017-09-25T04:18:15.741Z,0
2017-09-25T04:19:25.332Z,0
2017-09-25T04:20:33.982Z,0
2017-09-25T04:21:42.677Z,0
2017-09-25T04:22:51.705Z,0
2017-09-25T04:24:00.342Z,0
2017-09-25T04:25:09.309Z,0
2017-09-25T04:26:18.582Z,0
2017-09-25T04:27:27.857Z,0
2017-09-25T04:28:37.458Z,0
2017-09-25T04:29:46.754Z,0
2017-09-25T04:30:56.027Z,0
2017-09-25T04:32:05.333Z,0
2017-09-25T04:33:14.317Z,0
2017-09-25T04:34:23.600Z,0
2017-09-25T04:35:32.914Z,0
2017-09-25T04:36:41.584Z,0
2017-09-25T04:37:50.966Z,0
2017-09-25T04:39:00.323Z,0
2017-09-25T04:40:09.927Z,0
2017-09-25T04:41:19.101Z,0
2017-09-25T04:42:28.617Z,0
2017-09-25T04:43:38.028Z,0
2017-09-25T04:44:47.323Z,0
2017-09-25T04:45:57.227Z,0
2017-09-25T04:47:05.922Z,0
2017-09-25T04:48:15.843Z,0
2017-09-25T04:49:24.522Z,0
2017-09-25T04:50:34.427Z,0
2017-09-25T04:51:44.031Z,0
2017-09-25T04:52:52.988Z,0
2017-09-25T04:54:02.057Z,0
2017-09-25T04:55:11.373Z,0
2017-09-25T04:56:20.658Z,0
2017-09-25T04:57:29.644Z,0
2017-09-25T04:58:39.588Z,0
2017-09-25T04:59:48.877Z,0
2017-09-25T05:00:57.531Z,0
2017-09-25T05:02:06.504Z,0
2017-09-25T05:03:15.793Z,0
2017-09-25T05:04:24.481Z,4
2017-09-25T05:05:33.599Z,4
2017-09-25T05:06:42.298Z,0
2017-09-25T05:07:51.301Z,4
2017-09-25T05:08:59.965Z,4
2017-09-25T05:10:08.630Z,4
2017-09-25T05:11:17.765Z,8
2017-09-25T05:12:26.785Z,12
2017-09-25T05:13:36.055Z,16
2017-09-25T05:14:45.345Z,20
2017-09-25T05:15:54.358Z,28
2017-09-25T05:17:03.797Z,28
2017-09-25T05:18:12.820Z,32
2017-09-25T05:19:21.797Z,40
2017-09-25T05:20:30.450Z,44
2017-09-25T05:21:39.778Z,48
2017-09-25T05:22:48.766Z,56
2017-09-25T05:23:57.749Z,60
2017-09-25T05:25:06.882Z,68
2017-09-25T05:26:16.980Z,76
2017-09-25T05:27:25.954Z,84
2017-09-25T05:28:35.092Z,88
2017-09-25T05:29:44.399Z,96
2017-09-25T05:30:53.371Z,112
2017-09-25T05:32:02.063Z,120
2017-09-25T05:33:10.770Z,128
2017-09-25T05:34:19.735Z,140
2017-09-25T05:35:29.016Z,152
2017-09-25T05:36:38.637Z,164
2017-09-25T05:37:47.629Z,172
2017-09-25T05:38:57.244Z,184
2017-09-25T05:40:06.239Z,196
2017-09-25T05:41:15.578Z,204
2017-09-25T05:42:24.250Z,216
2017-09-25T05:43:32.899Z,228
2017-09-25T05:44:42.507Z,240
2017-09-25T05:45:51.166Z,256
2017-09-25T05:47:00.789Z,268
2017-09-25T05:48:10.078Z,284
2017-09-25T05:49:19.090Z,300
2017-09-25T05:50:28.354Z,324
2017-09-25T05:51:37.623Z,340
2017-09-25T05:52:46.902Z,364
2017-09-25T05:53:55.910Z,380
2017-09-25T05:55:05.532Z,400
2017-09-25T05:56:15.460Z,412
2017-09-25T05:57:24.477Z,428
2017-09-25T05:58:33.787Z,444
2017-09-25T05:59:42.765Z,464
2017-09-25T06:00:51.444Z,484
2017-09-25T06:02:00.422Z,500
2017-09-25T06:03:09.727Z,520
2017-09-25T06:04:19.039Z,540
2017-09-25T06:05:27.749Z,560
2017-09-25T06:06:36.760Z,584
2017-09-25T06:07:45.729Z,604
2017-09-25T06:08:54.708Z,620
2017-09-25T06:10:03.397Z,636
2017-09-25T06:11:12.059Z,644
2017-09-25T06:12:21.040Z,652
2017-09-25T06:13:30.323Z,664
2017-09-25T06:14:40.083Z,676
2017-09-25T06:15:49.402Z,700
2017-09-25T06:16:58.722Z,712
2017-09-25T06:18:07.426Z,728
2017-09-25T06:19:16.712Z,740
2017-09-25T06:20:26.188Z,756
2017-09-25T06:21:34.838Z,772
2017-09-25T06:22:43.550Z,776
2017-09-25T06:23:52.539Z,792
2017-09-25T06:25:01.845Z,812
2017-09-25T06:26:10.983Z,836
2017-09-25T06:27:19.681Z,864
2017-09-25T06:28:28.354Z,892
2017-09-25T06:29:37.374Z,900
2017-09-25T06:30:46.049Z,896
2017-09-25T06:31:54.757Z,880
2017-09-25T06:33:04.695Z,872
2017-09-25T06:34:13.711Z,868
2017-09-25T06:35:22.698Z,876
2017-09-25T06:36:31.988Z,908
2017-09-25T06:37:41.440Z,972
2017-09-25T06:38:50.418Z,1044
2017-09-25T06:39:59.703Z,1120
2017-09-25T06:41:08.992Z,1260
2017-09-25T06:42:18.605Z,1388
2017-09-25T06:43:27.730Z,1356
2017-09-25T06:44:37.172Z,1356
2017-09-25T06:45:46.611Z,1368
2017-09-25T06:46:55.930Z,1356
2017-09-25T06:48:05.227Z,1404
2017-09-25T06:49:14.346Z,1528
2017-09-25T06:50:23.254Z,1584
2017-09-25T06:51:35.341Z,1448
2017-09-25T06:52:44.348Z,1276
2017-09-25T06:53:53.397Z,1200
2017-09-25T06:55:02.748Z,1164
2017-09-25T06:56:11.726Z,1116
2017-09-25T06:57:20.395Z,1028
2017-09-25T06:58:29.694Z,940
2017-09-25T06:59:38.686Z,920
2017-09-25T07:00:48.283Z,924
2017-09-25T07:01:56.952Z,936
2017-09-25T07:03:05.650Z,916
2017-09-25T07:04:14.636Z,912
2017-09-25T07:05:23.621Z,920
2017-09-25T07:06:32.647Z,920
2017-09-25T07:07:41.927Z,924
2017-09-25T07:08:51.556Z,876
2017-09-25T07:10:00.852Z,856
2017-09-25T07:11:09.507Z,856
2017-09-25T07:12:18.504Z,844
2017-09-25T07:13:27.483Z,792
2017-09-25T07:14:37.114Z,740
2017-09-25T07:15:46.728Z,744
2017-09-25T07:16:56.035Z,748
2017-09-25T07:18:05.369Z,776
2017-09-25T07:19:14.659Z,796
2017-09-25T07:20:23.632Z,820
2017-09-25T07:21:33.312Z,828
2017-09-25T07:22:42.004Z,840
2017-09-25T07:23:50.702Z,852
2017-09-25T07:25:00.210Z,852
2017-09-25T07:26:09.199Z,868
2017-09-25T07:27:18.810Z,892
2017-09-25T07:28:27.821Z,912
2017-09-25T07:29:37.430Z,896
2017-09-25T07:30:46.432Z,892
2017-09-25T07:31:56.065Z,896
2017-09-25T07:33:05.087Z,916
2017-09-25T07:34:13.975Z,928
2017-09-25T07:35:23.394Z,924
2017-09-25T07:36:32.769Z,880
2017-09-25T07:37:42.390Z,852
2017-09-25T07:38:51.543Z,836
2017-09-25T07:40:00.204Z,844
2017-09-25T07:41:09.504Z,880
2017-09-25T07:42:18.180Z,928
2017-09-25T07:43:26.833Z,948
2017-09-25T07:44:36.132Z,940
2017-09-25T07:45:44.787Z,940
2017-09-25T07:46:54.388Z,952
2017-09-25T07:48:03.053Z,984
2017-09-25T07:49:12.070Z,1024
2017-09-25T07:50:21.353Z,1112
2017-09-25T07:51:30.665Z,1212
2017-09-25T07:52:40.416Z,1316
2017-09-25T07:53:49.100Z,1312
2017-09-25T07:54:58.095Z,1256
2017-09-25T07:56:07.103Z,1228
2017-09-25T07:57:16.149Z,1192
2017-09-25T07:58:25.472Z,1152
2017-09-25T07:59:34.986Z,1088
2017-09-25T08:00:44.924Z,1064
2017-09-25T08:01:54.245Z,1096
2017-09-25T08:03:03.564Z,1124
2017-09-25T08:04:12.310Z,1156
2017-09-25T08:05:20.976Z,1184
2017-09-25T08:06:29.975Z,1164
2017-09-25T08:07:38.968Z,1200
2017-09-25T08:08:48.288Z,1244
2017-09-25T08:09:57.313Z,1296
2017-09-25T08:11:05.969Z,1304
2017-09-25T08:12:14.954Z,1292
2017-09-25T08:13:23.721Z,1304
2017-09-25T08:14:32.732Z,1296
2017-09-25T08:15:41.700Z,1280
2017-09-25T08:16:50.676Z,1268
2017-09-25T08:17:59.666Z,1252
2017-09-25T08:19:09.285Z,1252
2017-09-25T08:20:18.593Z,1272
2017-09-25T08:21:27.916Z,1304
2017-09-25T08:22:36.907Z,1332
2017-09-25T08:23:45.575Z,1348
2017-09-25T08:24:54.233Z,1364
2017-09-25T08:26:03.225Z,1376
2017-09-25T08:27:12.517Z,1352
2017-09-25T08:28:21.514Z,1344
2017-09-25T08:29:30.570Z,1344
2017-09-25T08:30:39.877Z,1328
2017-09-25T08:31:48.853Z,1284
2017-09-25T08:32:58.484Z,1260
2017-09-25T08:34:07.792Z,1232
2017-09-25T08:35:17.397Z,1244
2017-09-25T08:36:26.725Z,1308
2017-09-25T08:37:35.830Z,1384
2017-09-25T08:38:44.499Z,1392
2017-09-25T08:39:53.514Z,1360
2017-09-25T08:41:02.537Z,1368
2017-09-25T08:42:12.486Z,1440
2017-09-25T08:43:21.503Z,1564
2017-09-25T08:44:30.815Z,1712
2017-09-25T08:45:40.141Z,1792
2017-09-25T08:46:49.446Z,1864
2017-09-25T08:47:58.729Z,1924
2017-09-25T08:49:08.058Z,1984
2017-09-25T08:50:17.088Z,1936
2017-09-25T08:51:26.096Z,1884
2017-09-25T08:52:35.093Z,1892
2017-09-25T08:53:44.428Z,1808
2017-09-25T08:54:53.083Z,1724
2017-09-25T08:56:01.848Z,1684
2017-09-25T08:57:11.346Z,1736
2017-09-25T08:58:20.628Z,1768
2017-09-25T08:59:29.894Z,1844
2017-09-25T09:00:38.559Z,1844
2017-09-25T09:01:47.237Z,1880
2017-09-25T09:02:56.559Z,1940
2017-09-25T09:04:05.231Z,2096
2017-09-25T09:05:14.210Z,2240
2017-09-25T09:06:23.259Z,2384
2017-09-25T09:07:32.243Z,2444
2017-09-25T09:08:41.548Z,2516
2017-09-25T09:09:50.518Z,2516
2017-09-25T09:10:59.486Z,2428
2017-09-25T09:12:08.830Z,2404
2017-09-25T09:13:17.967Z,2388
2017-09-25T09:14:26.945Z,2440
2017-09-25T09:15:35.921Z,2408
2017-09-25T09:16:45.554Z,2436
2017-09-25T09:17:54.567Z,2448
2017-09-25T09:19:03.258Z,2516
2017-09-25T09:20:12.581Z,2576
2017-09-25T09:21:21.885Z,2488
2017-09-25T09:22:30.870Z,2316
2017-09-25T09:23:39.557Z,2316
2017-09-25T09:24:48.558Z,2392
2017-09-25T09:25:57.876Z,2388
2017-09-25T09:27:07.208Z,2304
2017-09-25T09:28:15.868Z,2212
2017-09-25T09:29:24.853Z,2196
2017-09-25T09:30:33.853Z,2176
2017-09-25T09:31:43.530Z,2184
2017-09-25T09:32:53.140Z,2180
2017-09-25T09:34:02.432Z,2176
2017-09-25T09:35:12.069Z,2168
2017-09-25T09:36:21.078Z,2188
2017-09-25T09:37:30.074Z,2260
2017-09-25T09:38:38.769Z,2304
2017-09-25T09:39:47.761Z,2376
2017-09-25T09:40:57.056Z,2380
2017-09-25T09:42:06.754Z,2316
2017-09-25T09:43:16.074Z,2240
2017-09-25T09:44:25.058Z,2200
2017-09-25T09:45:34.050Z,2236
2017-09-25T09:46:43.046Z,2256
2017-09-25T09:47:52.677Z,2224
2017-09-25T09:49:02.335Z,2192
2017-09-25T09:50:11.026Z,2200
2017-09-25T09:51:20.364Z,2208
2017-09-25T09:52:29.349Z,2308
2017-09-25T09:53:38.672Z,2488
2017-09-25T09:54:48.312Z,2620
2017-09-25T09:55:57.625Z,2612
2017-09-25T09:57:06.667Z,2580
2017-09-25T09:58:16.620Z,2500
2017-09-25T09:59:25.598Z,2432
2017-09-25T10:00:34.279Z,2524
2017-09-25T10:01:43.932Z,2740
2017-09-25T10:02:52.917Z,2940
2017-09-25T10:04:02.219Z,3028
2017-09-25T10:05:11.864Z,3044
2017-09-25T10:06:20.862Z,2972
2017-09-25T10:07:30.150Z,3000
2017-09-25T10:08:39.218Z,2976
2017-09-25T10:09:48.594Z,2928
2017-09-25T10:10:57.816Z,2872
2017-09-25T10:12:06.798Z,2836
2017-09-25T10:13:16.088Z,2732
2017-09-25T10:14:25.113Z,2668
2017-09-25T10:15:34.388Z,2588
2017-09-25T10:16:43.716Z,2512
2017-09-25T10:17:53.058Z,2452
2017-09-25T10:19:02.047Z,2488
2017-09-25T10:20:11.650Z,2496
2017-09-25T10:21:20.641Z,2472
2017-09-25T10:22:29.310Z,2460
2017-09-25T10:23:38.298Z,2464
2017-09-25T10:24:47.264Z,2532
2017-09-25T10:25:56.876Z,2604
2017-09-25T10:27:06.499Z,2600
2017-09-25T10:28:15.543Z,2564
2017-09-25T10:29:25.145Z,2512
2017-09-25T10:30:34.504Z,2500
2017-09-25T10:31:43.501Z,2560
2017-09-25T10:32:52.488Z,2596
2017-09-25T10:34:01.459Z,2544
2017-09-25T10:35:10.122Z,2504
2017-09-25T10:36:19.176Z,2504
2017-09-25T10:37:27.903Z,2532
2017-09-25T10:38:36.892Z,2568
2017-09-25T10:39:45.542Z,2604
2017-09-25T10:40:55.154Z,2556
2017-09-25T10:42:04.126Z,2496
2017-09-25T10:43:13.437Z,2556
2017-09-25T10:44:22.728Z,2656
2017-09-25T10:45:31.724Z,2684
2017-09-25T10:46:40.395Z,2636
2017-09-25T10:47:49.397Z,2644
2017-09-25T10:48:58.382Z,2604
2017-09-25T10:50:07.688Z,2568
2017-09-25T10:51:16.571Z,2536
2017-09-25T10:52:26.199Z,2568
2017-09-25T10:53:35.225Z,2580
2017-09-25T10:54:44.533Z,2536
2017-09-25T10:55:53.204Z,2516
2017-09-25T10:57:02.499Z,2492
2017-09-25T10:58:11.281Z,2512
2017-09-25T10:59:20.282Z,2584
2017-09-25T11:00:29.630Z,2584
2017-09-25T11:01:38.302Z,2512
2017-09-25T11:02:47.911Z,2448
2017-09-25T11:03:56.899Z,2476
2017-09-25T11:05:06.205Z,2472
2017-09-25T11:06:15.190Z,2484
2017-09-25T11:07:24.183Z,2440
2017-09-25T11:08:32.953Z,2424
2017-09-25T11:09:42.251Z,2456
2017-09-25T11:10:51.260Z,2508
2017-09-25T11:12:00.027Z,2564
2017-09-25T11:13:08.708Z,2608
2017-09-25T11:14:18.015Z,2692
2017-09-25T11:15:27.035Z,2676
2017-09-25T11:16:36.362Z,2596
2017-09-25T11:17:45.353Z,2388
2017-09-25T11:18:54.986Z,2028
2017-09-25T11:20:03.657Z,1640
2017-09-25T11:21:12.637Z,1448
2017-09-25T11:22:21.629Z,1348
2017-09-25T11:23:31.288Z,1284
2017-09-25T11:24:40.293Z,1196
2017-09-25T11:25:49.605Z,1104
2017-09-25T11:26:58.906Z,984
2017-09-25T11:28:07.573Z,908
2017-09-25T11:29:16.559Z,872
2017-09-25T11:30:25.860Z,820
2017-09-25T11:31:34.514Z,768
2017-09-25T11:32:44.109Z,780
2017-09-25T11:33:54.040Z,800
2017-09-25T11:35:02.706Z,796
2017-09-25T11:36:11.690Z,784
2017-09-25T11:37:20.676Z,776
2017-09-25T11:38:29.335Z,772
2017-09-25T11:39:39.270Z,768
2017-09-25T11:40:47.945Z,764
2017-09-25T11:41:57.248Z,764
2017-09-25T11:43:05.920Z,760
2017-09-25T11:44:15.854Z,768
2017-09-25T11:45:24.832Z,768
2017-09-25T11:46:34.174Z,772
2017-09-25T11:47:42.832Z,780
2017-09-25T11:48:51.824Z,792
2017-09-25T11:50:01.127Z,800
2017-09-25T11:51:10.411Z,816
2017-09-25T11:52:19.390Z,828
2017-09-25T11:53:28.412Z,848
2017-09-25T11:54:37.781Z,860
2017-09-25T11:55:47.123Z,856
2017-09-25T11:56:55.792Z,856
2017-09-25T11:58:04.770Z,832
2017-09-25T11:59:13.765Z,820
2017-09-25T12:00:22.427Z,808
2017-09-25T12:01:31.416Z,800
2017-09-25T12:02:40.412Z,800
2017-09-25T12:03:49.729Z,800
2017-09-25T12:04:59.018Z,804
2017-09-25T12:06:08.323Z,808
2017-09-25T12:07:16.982Z,824
2017-09-25T12:08:26.284Z,836
2017-09-25T12:09:35.580Z,884
2017-09-25T12:10:44.562Z,952
2017-09-25T12:11:53.865Z,1064
2017-09-25T12:13:03.170Z,1116
2017-09-25T12:14:12.455Z,1060
2017-09-25T12:15:21.456Z,1072
2017-09-25T12:16:30.801Z,1052
2017-09-25T12:17:39.466Z,964
2017-09-25T12:18:48.752Z,1004
2017-09-25T12:19:58.076Z,1020
2017-09-25T12:21:06.750Z,1060
2017-09-25T12:22:15.744Z,1156
2017-09-25T12:23:24.720Z,1304
2017-09-25T12:24:34.649Z,1464
2017-09-25T12:25:43.298Z,1528
2017-09-25T12:26:51.964Z,1576
2017-09-25T12:28:00.634Z,1544
2017-09-25T12:29:09.301Z,1496
2017-09-25T12:30:17.972Z,1416
2017-09-25T12:31:26.950Z,1476
2017-09-25T12:32:36.249Z,1520
2017-09-25T12:33:45.225Z,1560
2017-09-25T12:34:54.208Z,1624
2017-09-25T12:36:03.221Z,1616
2017-09-25T12:37:12.220Z,1724
2017-09-25T12:38:21.207Z,1952
2017-09-25T12:39:30.180Z,2156
2017-09-25T12:40:39.157Z,2260
2017-09-25T12:41:48.164Z,2404
2017-09-25T12:42:57.473Z,2464
2017-09-25T12:44:06.769Z,2424
2017-09-25T12:45:15.439Z,2260
2017-09-25T12:46:24.117Z,2052
2017-09-25T12:47:33.461Z,1892
2017-09-25T12:48:42.455Z,1596
2017-09-25T12:49:51.769Z,1384
2017-09-25T12:51:01.070Z,1100
2017-09-25T12:52:10.361Z,848
2017-09-25T12:53:19.701Z,700
2017-09-25T12:54:28.740Z,636
2017-09-25T12:55:37.407Z,576
2017-09-25T12:56:46.733Z,520
2017-09-25T12:57:56.038Z,468
2017-09-25T12:59:05.651Z,456
2017-09-25T13:00:14.307Z,428
2017-09-25T13:01:23.296Z,408
2017-09-25T13:02:32.350Z,404
2017-09-25T13:03:41.026Z,400
2017-09-25T13:04:50.648Z,404
2017-09-25T13:05:59.312Z,416
2017-09-25T13:07:07.980Z,448
2017-09-25T13:08:17.280Z,424
2017-09-25T13:09:26.191Z,448
2017-09-25T13:10:35.317Z,480
2017-09-25T13:11:44.295Z,524
2017-09-25T13:12:52.996Z,592
2017-09-25T13:14:02.621Z,652
2017-09-25T13:15:12.147Z,668
2017-09-25T13:16:21.760Z,684
2017-09-25T13:17:30.437Z,716
2017-09-25T13:18:39.426Z,744
2017-09-25T13:19:48.120Z,768
2017-09-25T13:20:57.091Z,796
2017-09-25T13:22:06.375Z,832
2017-09-25T13:23:15.350Z,868
2017-09-25T13:24:24.329Z,892
2017-09-25T13:25:33.335Z,904
2017-09-25T13:26:42.660Z,896
2017-09-25T13:27:52.271Z,884
2017-09-25T13:29:01.284Z,888
2017-09-25T13:30:10.286Z,908
2017-09-25T13:31:18.956Z,944
2017-09-25T13:32:28.322Z,976
2017-09-25T13:33:37.364Z,1004
2017-09-25T13:34:46.379Z,1020
2017-09-25T13:35:55.876Z,1044
2017-09-25T13:37:04.850Z,1076
2017-09-25T13:38:13.841Z,1136
2017-09-25T13:39:22.521Z,1204
2017-09-25T13:40:31.534Z,1268
2017-09-25T13:41:40.850Z,1312
2017-09-25T13:42:50.087Z,1324
2017-09-25T13:43:59.726Z,1312
2017-09-25T13:45:09.052Z,1304
2017-09-25T13:46:18.375Z,1304
2017-09-25T13:47:27.707Z,1316
2017-09-25T13:48:37.012Z,1348
2017-09-25T13:49:45.795Z,1356
2017-09-25T13:50:54.803Z,1340
2017-09-25T13:52:03.488Z,1312
2017-09-25T13:53:12.459Z,1284
2017-09-25T13:54:21.446Z,1268
2017-09-25T13:55:31.072Z,1256
2017-09-25T13:56:40.697Z,1244
2017-09-25T13:57:49.676Z,1232
2017-09-25T14:02:47.467Z,1232
2017-09-25T14:03:57.096Z,1256
2017-09-25T14:05:05.798Z,1288
2017-09-25T14:06:15.127Z,1284
2017-09-25T14:07:24.442Z,1264
2017-09-25T14:08:33.136Z,1260
2017-09-25T14:09:42.760Z,1256
2017-09-25T14:10:51.736Z,1244
2017-09-25T14:12:00.718Z,1228
2017-09-25T14:13:09.702Z,1200
2017-09-25T14:14:18.367Z,1172
2017-09-25T14:15:27.671Z,1160
2017-09-25T14:16:36.373Z,1164
2017-09-25T14:17:45.358Z,1188
2017-09-25T14:18:54.649Z,1216
2017-09-25T14:20:03.345Z,1236
2017-09-25T14:21:12.346Z,1244
2017-09-25T14:22:21.330Z,1236
2017-09-25T14:23:30.299Z,1208
2017-09-25T14:24:39.314Z,1164
2017-09-25T14:25:48.615Z,1136
2017-09-25T14:26:58.265Z,1132
2017-09-25T14:28:07.251Z,1144
2017-09-25T14:29:16.278Z,1164
2017-09-25T14:30:24.966Z,1156
2017-09-25T14:31:34.598Z,1132
2017-09-25T14:32:43.603Z,1092
2017-09-25T14:33:52.580Z,1048
2017-09-25T14:35:01.588Z,1016
2017-09-25T14:36:10.759Z,1004
2017-09-25T14:37:19.737Z,1016
2017-09-25T14:38:28.466Z,1052
2017-09-25T14:39:37.752Z,1104
2017-09-25T14:40:46.744Z,1148
2017-09-25T14:41:55.734Z,1180
2017-09-25T14:43:04.751Z,1180
2017-09-25T14:44:13.740Z,1156
2017-09-25T14:45:22.787Z,1132
2017-09-25T14:46:31.762Z,1120
2017-09-25T14:47:40.433Z,1108
2017-09-25T14:48:49.730Z,1108
2017-09-25T14:49:58.735Z,1100
2017-09-25T14:51:07.719Z,1084
2017-09-25T14:52:17.030Z,1052
2017-09-25T14:53:25.706Z,1036
2017-09-25T14:54:34.687Z,1016
2017-09-25T14:55:43.353Z,996
2017-09-25T14:56:52.341Z,972
2017-09-25T14:58:01.005Z,948
2017-09-25T14:59:09.655Z,928
2017-09-25T15:00:19.252Z,912
2017-09-25T15:01:28.553Z,912
2017-09-25T15:02:37.876Z,924
2017-09-25T15:03:47.164Z,948
2017-09-25T15:04:55.954Z,964
2017-09-25T15:06:05.244Z,968
2017-09-25T15:07:14.237Z,964
2017-09-25T15:08:23.269Z,944
2017-09-25T15:09:32.575Z,928
2017-09-25T15:10:41.637Z,916
2017-09-25T15:11:50.665Z,916
2017-09-25T15:12:59.689Z,920
2017-09-25T15:14:08.984Z,916
2017-09-25T15:15:18.281Z,900
2017-09-25T15:16:27.274Z,876
2017-09-25T15:17:36.067Z,848
2017-09-25T15:18:44.725Z,832
2017-09-25T15:19:54.083Z,824
2017-09-25T15:21:02.817Z,824
2017-09-25T15:22:11.468Z,820
2017-09-25T15:23:20.460Z,812
2017-09-25T15:24:29.472Z,804
2017-09-25T15:25:38.448Z,796
2017-09-25T15:26:47.761Z,780
2017-09-25T15:27:57.449Z,768
2017-09-25T15:29:06.483Z,760
2017-09-25T15:30:16.190Z,752
2017-09-25T15:31:25.504Z,748
2017-09-25T15:32:34.513Z,740
2017-09-25T15:33:43.545Z,736
2017-09-25T15:34:52.853Z,724
2017-09-25T15:36:01.847Z,704
2017-09-25T15:37:10.824Z,692
2017-09-25T15:38:19.870Z,676
2017-09-25T15:39:29.171Z,660
2017-09-25T15:40:38.250Z,644
2017-09-25T15:41:47.222Z,632
2017-09-25T15:42:56.851Z,612
2017-09-25T15:44:06.476Z,596
2017-09-25T15:45:15.459Z,584
2017-09-25T15:46:24.152Z,568
2017-09-25T15:47:33.141Z,548
2017-09-25T15:48:42.770Z,532
2017-09-25T15:49:52.084Z,516
2017-09-25T15:51:01.732Z,508
2017-09-25T15:52:10.399Z,500
2017-09-25T15:53:19.708Z,508
2017-09-25T15:54:29.621Z,516
2017-09-25T15:55:38.919Z,516
2017-09-25T15:56:48.209Z,520
2017-09-25T15:57:57.824Z,516
2017-09-25T15:59:06.484Z,508
2017-09-25T16:00:16.206Z,500
2017-09-25T16:01:24.896Z,484
2017-09-25T16:02:33.875Z,476
2017-09-25T16:03:43.862Z,468
2017-09-25T16:04:52.895Z,460